createdAt,value
2017-12-01T00:00:46.192Z,992.67
2017-12-01T00:01:46.183Z,992.66
2017-12-01T00:02:46.128Z,992.66
2017-12-01T00:03:46.112Z,992.65
2017-12-01T00:04:46.077Z,992.66
2017-12-01T00:05:46.106Z,992.68
2017-12-01T00:06:46.032Z,992.67
2017-12-01T00:07:46.013Z,992.71
2017-12-01T00:08:45.976Z,992.66
2017-12-01T00:09:45.953Z,992.70
2017-12-01T00:10:45.929Z,992.70
2017-12-01T00:11:45.895Z,992.71
2017-12-01T00:12:45.945Z,992.73
2017-12-01T00:13:45.843Z,992.76
2017-12-01T00:14:45.824Z,992.76
2017-12-01T00:15:45.791Z,992.76
2017-12-01T00:16:45.863Z,992.78
2017-12-01T00:17:45.726Z,992.80
2017-12-01T00:18:45.775Z,992.82
2017-12-01T00:19:45.678Z,992.82
2017-12-01T00:20:45.685Z,992.84
2017-12-01T00:21:45.626Z,992.80
2017-12-01T00:22:45.697Z,992.84
2017-12-01T00:23:45.573Z,992.81
2017-12-01T00:24:45.605Z,992.84
2017-12-01T00:25:45.514Z,992.82
2017-12-01T00:26:45.519Z,992.83
2017-12-01T00:27:45.465Z,992.86
2017-12-01T00:28:45.531Z,992.89
2017-12-01T00:29:45.411Z,992.88
2017-12-01T00:30:45.440Z,992.89
2017-12-01T00:31:45.358Z,992.94
2017-12-01T00:32:45.349Z,992.91
2017-12-01T00:33:45.307Z,992.92
2017-12-01T00:34:45.361Z,992.95
2017-12-01T00:35:45.303Z,992.98
2017-12-01T00:36:45.273Z,992.97
2017-12-01T00:37:45.192Z,993.00
2017-12-01T00:38:45.171Z,993.01
2017-12-01T00:39:45.146Z,993.02
2017-12-01T00:40:45.196Z,993.04
2017-12-01T00:41:45.081Z,993.04
2017-12-01T00:42:45.111Z,993.07
2017-12-01T00:43:45.029Z,993.07
2017-12-01T00:44:45.122Z,993.09
2017-12-01T00:45:44.983Z,993.07
2017-12-01T01:01:45.632Z,993.10
2017-12-01T01:02:44.532Z,993.17
2017-12-01T01:03:44.514Z,993.10
2017-12-01T01:04:44.476Z,993.16
2017-12-01T01:05:44.529Z,993.19
2017-12-01T01:06:44.412Z,993.20
2017-12-01T01:07:44.440Z,993.21
2017-12-01T01:08:44.370Z,993.24
2017-12-01T01:09:44.451Z,993.28
2017-12-01T01:10:44.309Z,993.27
2017-12-01T01:11:45.384Z,993.30
2017-12-01T01:12:44.256Z,993.30
2017-12-01T01:13:44.228Z,993.32
2017-12-01T01:14:44.199Z,993.37
2017-12-01T01:15:44.282Z,993.32
2017-12-01T01:16:44.150Z,993.34
2017-12-01T01:17:44.192Z,993.35
2017-12-01T01:18:44.096Z,993.36
2017-12-01T01:19:44.103Z,993.41
2017-12-01T01:20:44.035Z,993.36
2017-12-01T01:21:45.036Z,993.37
2017-12-01T01:22:43.990Z,993.41
2017-12-01T01:23:43.963Z,993.42
2017-12-01T01:24:43.937Z,993.42
2017-12-01T01:25:43.932Z,993.46
2017-12-01T01:26:43.884Z,993.46
2017-12-01T01:27:43.945Z,993.45
2017-12-01T01:28:43.825Z,993.52
2017-12-01T01:29:43.853Z,993.51
2017-12-01T01:30:43.775Z,993.47
2017-12-01T01:31:44.792Z,993.52
2017-12-01T01:32:43.714Z,993.51
2017-12-01T01:33:43.784Z,993.51
2017-12-01T01:34:43.665Z,993.51
2017-12-01T01:35:43.689Z,993.54
2017-12-01T01:36:43.613Z,993.58
2017-12-01T01:37:43.603Z,993.55
2017-12-01T01:38:43.605Z,993.57
2017-12-01T01:39:43.526Z,993.60
2017-12-01T01:40:43.622Z,993.59
2017-12-01T01:41:43.483Z,993.56
2017-12-01T01:42:43.529Z,993.58
2017-12-01T01:43:43.424Z,993.60
2017-12-01T01:44:43.435Z,993.60
2017-12-01T01:45:43.373Z,993.61
2017-12-01T01:46:43.451Z,993.63
2017-12-01T01:47:43.318Z,993.60
2017-12-01T01:48:43.284Z,993.62
2017-12-01T01:49:43.264Z,993.61
2017-12-01T01:50:43.274Z,993.63
2017-12-01T01:51:43.211Z,993.65
2017-12-01T01:52:43.278Z,993.62
2017-12-01T01:53:43.156Z,993.71
2017-12-01T01:54:43.188Z,993.68
2017-12-01T01:55:43.103Z,993.69
2017-12-01T01:56:43.099Z,993.71
2017-12-01T01:57:43.045Z,993.73
2017-12-01T01:58:43.024Z,993.76
2017-12-01T01:59:43.000Z,993.74
2017-12-01T02:00:43.023Z,993.81
2017-12-01T02:01:42.942Z,993.75
2017-12-01T02:02:42.935Z,993.76
2017-12-01T02:03:42.882Z,993.77
2017-12-01T02:04:42.952Z,993.79
2017-12-01T02:05:42.849Z,993.88
2017-12-01T02:06:42.808Z,993.88
2017-12-01T02:07:42.863Z,993.92
2017-12-01T02:08:42.752Z,993.94
2017-12-01T02:09:42.772Z,993.93
2017-12-01T02:10:42.700Z,993.92
2017-12-01T02:11:42.667Z,993.94
2017-12-01T02:12:42.689Z,993.99
2017-12-01T02:13:42.618Z,994.01
2017-12-01T02:14:42.697Z,994.00
2017-12-01T02:15:42.559Z,994.03
2017-12-01T02:16:42.610Z,994.04
2017-12-01T02:17:42.511Z,994.05
2017-12-01T02:18:42.521Z,994.04
2017-12-01T02:19:42.450Z,994.04
2017-12-01T02:20:42.535Z,994.03
2017-12-01T02:21:42.407Z,994.03
2017-12-01T02:22:42.441Z,994.09
2017-12-01T02:23:42.345Z,994.11
2017-12-01T02:24:42.356Z,994.11
2017-12-01T02:25:42.294Z,994.13
2017-12-01T02:26:42.365Z,994.15
2017-12-01T02:27:42.237Z,994.15
2017-12-01T02:28:42.277Z,994.17
2017-12-01T02:29:42.185Z,994.21
2017-12-01T02:30:42.187Z,994.19
2017-12-01T02:31:42.133Z,994.20
2017-12-01T02:32:42.197Z,994.24
2017-12-01T02:33:42.075Z,994.24
2017-12-01T02:34:42.065Z,994.28
2017-12-01T02:35:42.031Z,994.28
2017-12-01T02:36:42.020Z,994.24
2017-12-01T02:37:41.986Z,994.29
2017-12-01T02:38:42.035Z,994.25
2017-12-01T02:39:41.923Z,994.26
2017-12-01T02:40:41.890Z,994.22
2017-12-01T02:41:41.868Z,994.23
2017-12-01T02:42:41.950Z,994.22
2017-12-01T02:43:41.811Z,994.28
2017-12-01T02:44:41.860Z,994.26
2017-12-01T02:45:41.750Z,994.27
2017-12-01T02:46:41.732Z,994.25
2017-12-01T02:47:41.776Z,994.30
2017-12-01T02:48:41.677Z,994.32
2017-12-01T02:49:41.685Z,994.32
2017-12-01T02:50:41.623Z,994.32
2017-12-01T02:51:41.701Z,994.35
2017-12-01T02:52:41.570Z,994.34
2017-12-01T02:53:41.611Z,994.38
2017-12-01T02:54:41.516Z,994.42
2017-12-01T02:55:41.522Z,994.46
2017-12-01T02:56:41.462Z,994.46
2017-12-01T02:57:41.431Z,994.45
2017-12-01T02:58:41.409Z,994.49
2017-12-01T02:59:41.439Z,994.49
2017-12-01T03:00:41.347Z,994.53
2017-12-01T03:01:41.355Z,994.54
2017-12-01T03:02:41.293Z,994.56
2017-12-01T03:03:41.367Z,994.54
2017-12-01T03:04:41.247Z,994.54
2017-12-01T03:05:41.286Z,994.56
2017-12-01T03:06:41.185Z,994.57
2017-12-01T03:07:41.194Z,994.63
2017-12-01T03:08:41.137Z,994.58
2017-12-01T03:09:41.104Z,994.59
2017-12-01T03:10:41.103Z,994.65
2017-12-01T03:11:41.061Z,994.65
2017-12-01T03:12:41.114Z,994.70
2017-12-01T03:13:41.003Z,994.67
2017-12-01T03:14:40.971Z,994.73
2017-12-01T03:15:41.027Z,994.69
2017-12-01T03:16:40.923Z,994.75
2017-12-01T03:17:40.938Z,994.72
2017-12-01T03:18:40.865Z,994.73
2017-12-01T03:19:40.835Z,994.77
2017-12-01T03:20:40.813Z,994.76
2017-12-01T03:21:40.864Z,994.74
2017-12-01T03:22:40.763Z,994.79
2017-12-01T03:23:40.767Z,994.80
2017-12-01T03:24:40.709Z,994.84
2017-12-01T03:25:40.786Z,994.78
2017-12-01T03:26:40.656Z,994.83
2017-12-01T03:27:40.619Z,994.85
2017-12-01T03:28:40.703Z,994.85
2017-12-01T03:29:40.565Z,994.86
2017-12-01T03:30:40.610Z,994.85
2017-12-01T03:31:40.515Z,994.88
2017-12-01T03:32:40.489Z,994.88
2017-12-01T03:33:40.456Z,994.86
2017-12-01T03:34:40.532Z,994.88
2017-12-01T03:35:40.414Z,994.90
2017-12-01T03:36:40.442Z,994.92
2017-12-01T03:37:40.351Z,994.93
2017-12-01T03:38:40.330Z,994.92
2017-12-01T03:39:40.359Z,994.92
2017-12-01T03:40:40.275Z,994.90
2017-12-01T03:41:40.267Z,994.93
2017-12-01T03:42:40.228Z,994.94
2017-12-01T03:43:40.194Z,994.95
2017-12-01T03:44:40.165Z,994.95
2017-12-01T03:45:40.184Z,994.99
2017-12-01T03:46:40.113Z,994.97
2017-12-01T03:47:40.201Z,994.96
2017-12-01T03:48:40.106Z,994.98
2017-12-01T03:49:40.028Z,995.00
2017-12-01T03:50:40.123Z,995.01
2017-12-01T03:51:39.973Z,995.00
2017-12-01T03:52:40.029Z,995.07
2017-12-01T03:53:39.919Z,995.08
2017-12-01T03:54:39.940Z,995.06
2017-12-01T03:55:39.868Z,995.12
2017-12-01T03:56:39.949Z,995.14
2017-12-01T03:57:39.815Z,995.19
2017-12-01T03:58:39.858Z,995.24
2017-12-01T03:59:39.765Z,995.22
2017-12-01T04:00:39.768Z,995.26
2017-12-01T04:01:39.719Z,995.28
2017-12-01T04:02:39.678Z,995.23
2017-12-01T04:03:39.686Z,995.27
2017-12-01T04:04:39.625Z,995.24
2017-12-01T04:05:39.695Z,995.29
2017-12-01T04:06:39.571Z,995.27
2017-12-01T04:07:39.549Z,995.27
2017-12-01T04:08:39.512Z,995.29
2017-12-01T04:09:39.516Z,995.30
2017-12-01T04:10:39.457Z,995.35
2017-12-01T04:11:39.530Z,995.38
2017-12-01T04:12:39.405Z,995.42
2017-12-01T04:13:39.386Z,995.45
2017-12-01T04:14:39.442Z,995.43
2017-12-01T04:15:39.325Z,995.42
2017-12-01T04:16:39.356Z,995.46
2017-12-01T04:17:39.269Z,995.45
2017-12-01T04:18:39.248Z,995.47
2017-12-01T04:19:39.222Z,995.46
2017-12-01T04:20:39.275Z,995.49
2017-12-01T04:21:39.167Z,995.53
2017-12-01T04:22:39.186Z,995.53
2017-12-01T04:23:39.188Z,995.53
2017-12-01T04:24:39.119Z,995.56
2017-12-01T04:25:39.101Z,995.56
2017-12-01T04:26:39.027Z,995.59
2017-12-01T04:27:39.109Z,995.63
2017-12-01T04:28:38.977Z,995.59
2017-12-01T04:29:39.041Z,995.66
2017-12-01T04:30:38.929Z,995.67
2017-12-01T04:31:38.936Z,995.67
2017-12-01T04:32:38.873Z,995.72
2017-12-01T04:33:38.950Z,995.69
2017-12-01T04:34:38.826Z,995.75
2017-12-01T04:35:38.858Z,995.77
2017-12-01T04:36:38.766Z,995.78
2017-12-01T04:37:38.770Z,995.80
2017-12-01T04:38:38.713Z,995.82
2017-12-01T04:39:38.784Z,995.80
2017-12-01T04:40:38.655Z,995.83
2017-12-01T04:41:38.686Z,995.88
2017-12-01T04:42:38.599Z,995.85
2017-12-01T04:43:38.598Z,995.84
2017-12-01T04:44:38.541Z,995.84
2017-12-01T04:45:38.607Z,995.81
2017-12-01T04:46:38.501Z,995.86
2017-12-01T04:47:38.519Z,995.91
2017-12-01T04:48:38.437Z,995.93
2017-12-01T04:49:38.427Z,995.92
2017-12-01T04:50:38.381Z,995.95
2017-12-01T04:51:38.445Z,995.96
2017-12-01T04:52:38.322Z,995.95
2017-12-01T04:53:38.296Z,995.96
2017-12-01T04:54:38.274Z,996.01
2017-12-01T04:55:38.263Z,996.01
2017-12-01T04:56:38.220Z,996.02
2017-12-01T04:57:38.275Z,996.06
2017-12-01T04:58:38.164Z,996.06
2017-12-01T04:59:38.183Z,996.08
2017-12-01T05:00:38.104Z,996.10
2017-12-01T05:01:38.195Z,996.17
2017-12-01T05:02:38.053Z,996.18
2017-12-01T05:03:38.032Z,996.20
2017-12-01T05:04:38.002Z,996.23
2017-12-01T05:05:38.047Z,996.20
2017-12-01T05:06:37.950Z,996.21
2017-12-01T05:07:38.028Z,996.21
2017-12-01T05:08:37.889Z,996.21
2017-12-01T05:09:37.939Z,996.20
2017-12-01T05:10:37.835Z,996.22
2017-12-01T05:11:37.812Z,996.22
2017-12-01T05:12:37.781Z,996.21
2017-12-01T05:13:37.866Z,996.22
2017-12-01T05:14:37.732Z,996.27
2017-12-01T05:15:37.772Z,996.26
2017-12-01T05:16:37.673Z,996.31
2017-12-01T05:17:37.652Z,996.31
2017-12-01T05:18:37.617Z,996.30
2017-12-01T05:19:37.693Z,996.35
2017-12-01T05:20:37.569Z,996.36
2017-12-01T05:21:37.602Z,996.41
2017-12-01T05:22:37.508Z,996.43
2017-12-01T05:23:37.518Z,996.42
2017-12-01T05:24:37.455Z,996.45
2017-12-01T05:25:37.526Z,996.46
2017-12-01T05:26:37.408Z,996.47
2017-12-01T05:27:37.374Z,996.47
2017-12-01T05:28:37.352Z,996.49
2017-12-01T05:29:37.344Z,996.51
2017-12-01T05:30:37.302Z,996.55
2017-12-01T05:31:37.354Z,996.55
2017-12-01T05:32:37.248Z,996.61
2017-12-01T05:33:37.211Z,996.59
2017-12-01T05:34:37.270Z,996.63
2017-12-01T05:35:37.168Z,996.65
2017-12-01T05:36:37.182Z,996.64
2017-12-01T05:37:37.107Z,996.67
2017-12-01T05:38:37.080Z,996.67
2017-12-01T05:39:37.060Z,996.71
2017-12-01T05:40:37.101Z,996.73
2017-12-01T05:41:36.994Z,996.76
2017-12-01T05:42:37.014Z,996.75
2017-12-01T05:43:36.945Z,996.81
2017-12-01T05:44:37.022Z,996.81
2017-12-01T05:45:36.883Z,996.86
2017-12-01T05:46:36.935Z,996.87
2017-12-01T05:47:36.838Z,996.84
2017-12-01T05:48:36.802Z,996.86
2017-12-01T05:49:36.776Z,996.89
2017-12-01T05:50:36.860Z,996.86
2017-12-01T05:51:36.728Z,996.88
2017-12-01T05:52:36.767Z,996.95
2017-12-01T05:53:36.677Z,996.92
2017-12-01T05:54:36.640Z,996.92
2017-12-01T05:55:36.622Z,996.97
2017-12-01T05:56:36.688Z,996.95
2017-12-01T05:57:36.569Z,996.96
2017-12-01T05:58:36.596Z,996.97
2017-12-01T05:59:36.513Z,996.97
2017-12-01T06:00:36.507Z,996.95
2017-12-01T06:01:36.456Z,996.94
2017-12-01T06:02:36.521Z,996.96
2017-12-01T06:03:36.400Z,996.97
2017-12-01T06:04:36.428Z,997.00
2017-12-01T06:05:36.350Z,997.04
2017-12-01T06:06:36.338Z,997.04
2017-12-01T06:07:36.298Z,997.06
2017-12-01T06:08:36.354Z,997.12
2017-12-01T06:09:36.243Z,997.09
2017-12-01T06:10:36.263Z,997.15
2017-12-01T06:11:36.185Z,997.14
2017-12-01T06:12:36.172Z,997.13
2017-12-01T06:13:36.128Z,997.13
2017-12-01T06:14:36.186Z,997.16
2017-12-01T06:15:36.070Z,997.22
2017-12-01T06:16:36.094Z,997.26
2017-12-01T06:17:36.091Z,997.25
2017-12-01T06:18:36.108Z,997.26
2017-12-01T06:19:35.963Z,997.30
2017-12-01T06:20:36.018Z,997.30
2017-12-01T06:21:35.913Z,997.29
2017-12-01T06:22:35.881Z,997.27
2017-12-01T06:23:35.862Z,997.30
2017-12-01T06:24:35.940Z,997.32
2017-12-01T06:25:35.806Z,997.36
2017-12-01T06:26:35.850Z,997.39
2017-12-01T06:27:35.748Z,997.41
2017-12-01T06:28:35.765Z,997.41
2017-12-01T06:29:35.771Z,997.43
2017-12-01T06:30:35.675Z,997.50
2017-12-01T06:31:35.676Z,997.51
2017-12-01T06:32:35.609Z,997.50
2017-12-01T06:33:35.697Z,997.53
2017-12-01T06:34:35.572Z,997.55
2017-12-01T06:35:35.600Z,997.56
2017-12-01T06:36:35.502Z,997.62
2017-12-01T06:37:35.507Z,997.55
2017-12-01T06:38:35.457Z,997.63
2017-12-01T06:39:35.520Z,997.63
2017-12-01T06:40:35.404Z,997.67
2017-12-01T06:41:35.430Z,997.69
2017-12-01T06:42:35.341Z,997.71
2017-12-01T06:43:35.340Z,997.76
2017-12-01T06:44:35.289Z,997.76
2017-12-01T06:45:35.352Z,997.77
2017-12-01T06:46:35.356Z,997.81
2017-12-01T06:47:35.211Z,997.88
2017-12-01T06:48:35.269Z,997.83
2017-12-01T06:49:35.156Z,997.89
2017-12-01T06:50:35.210Z,997.90
2017-12-01T06:51:35.100Z,997.87
2017-12-01T06:52:35.192Z,997.89
2017-12-01T06:53:35.054Z,997.88
2017-12-01T06:54:35.109Z,997.87
2017-12-01T06:55:35.002Z,997.84
2017-12-01T06:56:35.019Z,997.91
2017-12-01T06:57:35.024Z,997.93
2017-12-01T06:58:34.919Z,997.94
2017-12-01T06:59:34.930Z,997.94
2017-12-01T07:00:34.857Z,998.01
2017-12-01T07:01:34.940Z,997.98
2017-12-01T07:02:34.806Z,997.99
2017-12-01T07:03:34.784Z,998.00
2017-12-01T07:04:34.968Z,998.03
2017-12-01T07:05:34.720Z,998.04
2017-12-01T07:06:39.577Z,998.08
2017-12-01T07:07:34.671Z,998.11
2017-12-01T07:08:34.641Z,998.08
2017-12-01T07:09:34.615Z,998.08
2017-12-01T07:10:34.789Z,998.14
2017-12-01T07:11:34.557Z,998.14
2017-12-01T07:12:34.703Z,998.15
2017-12-01T07:13:34.705Z,998.15
2017-12-01T07:14:34.486Z,998.18
2017-12-01T07:15:34.617Z,998.17
2017-12-01T07:16:34.453Z,998.21
2017-12-01T07:17:34.529Z,998.25
2017-12-01T07:18:34.373Z,998.26
2017-12-01T07:19:34.341Z,998.29
2017-12-01T07:20:34.449Z,998.34
2017-12-01T07:21:34.287Z,998.34
2017-12-01T07:22:34.456Z,998.37
2017-12-01T07:23:34.354Z,998.40
2017-12-01T07:24:34.211Z,998.46
2017-12-01T07:25:34.378Z,998.48
2017-12-01T07:26:34.156Z,998.49
2017-12-01T07:27:34.279Z,998.49
2017-12-01T07:28:34.109Z,998.49
2017-12-01T07:29:34.075Z,998.52
2017-12-01T07:30:34.198Z,998.54
2017-12-01T07:31:34.021Z,998.54
2017-12-01T07:32:34.105Z,998.63
2017-12-01T07:33:33.970Z,998.57
2017-12-01T07:34:34.118Z,998.60
2017-12-01T07:35:33.918Z,998.62
2017-12-01T07:36:34.038Z,998.70
2017-12-01T07:37:33.867Z,998.72
2017-12-01T07:38:33.936Z,998.72
2017-12-01T07:39:33.807Z,998.76
2017-12-01T07:40:33.948Z,998.76
2017-12-01T07:41:33.745Z,998.81
2017-12-01T07:42:33.863Z,998.82
2017-12-01T07:43:33.699Z,998.81
2017-12-01T07:44:33.772Z,998.84
2017-12-01T07:45:33.639Z,998.86
2017-12-01T07:46:34.705Z,998.89
2017-12-01T07:47:33.591Z,998.90
2017-12-01T07:48:33.589Z,998.92
2017-12-01T07:49:33.526Z,998.91
2017-12-01T07:50:33.604Z,998.92
2017-12-01T07:51:33.482Z,998.97
2017-12-01T07:52:33.447Z,999.00
2017-12-01T07:53:33.424Z,999.01
2017-12-01T07:54:33.426Z,999.04
2017-12-01T07:55:33.373Z,999.02
2017-12-01T07:56:33.442Z,999.03
2017-12-01T07:57:33.314Z,999.01
2017-12-01T07:58:33.296Z,999.05
2017-12-01T07:59:33.271Z,999.04
2017-12-01T08:00:33.254Z,999.09
2017-12-01T08:01:33.210Z,999.04
2017-12-01T08:02:33.266Z,999.07
2017-12-01T08:03:33.166Z,999.08
2017-12-01T08:04:33.125Z,999.08
2017-12-01T08:05:33.181Z,999.06
2017-12-01T08:06:33.078Z,999.10
2017-12-01T08:07:33.106Z,999.12
2017-12-01T08:08:33.024Z,999.11
2017-12-01T08:09:33.102Z,999.12
2017-12-01T08:10:32.973Z,999.17
2017-12-01T08:11:33.013Z,999.20
2017-12-01T08:12:32.914Z,999.21
2017-12-01T08:13:32.927Z,999.23
2017-12-01T08:14:32.859Z,999.26
2017-12-01T08:15:32.831Z,999.28
2017-12-01T08:16:32.807Z,999.29
2017-12-01T08:17:32.845Z,999.33
2017-12-01T08:18:32.752Z,999.35
2017-12-01T08:19:32.760Z,999.37
2017-12-01T08:20:32.697Z,999.38
2017-12-01T08:21:32.676Z,999.39
2017-12-01T08:22:32.644Z,999.41
2017-12-01T08:23:32.682Z,999.46
2017-12-01T08:24:32.589Z,999.48
2017-12-01T08:25:32.588Z,999.53
2017-12-01T08:26:32.535Z,999.55
2017-12-01T08:27:32.508Z,999.56
2017-12-01T08:28:32.520Z,999.60
2017-12-01T08:29:32.454Z,999.64
2017-12-01T08:30:32.514Z,999.65
2017-12-01T08:31:32.399Z,999.67
2017-12-01T08:32:32.472Z,999.71
2017-12-01T08:33:32.431Z,999.69
2017-12-01T08:34:32.312Z,999.73
2017-12-01T08:35:32.344Z,999.74
2017-12-01T08:36:32.258Z,999.78
2017-12-01T08:37:32.250Z,999.83
2017-12-01T08:38:32.219Z,999.82
2017-12-01T08:39:32.265Z,999.86
2017-12-01T08:40:32.152Z,999.85
2017-12-01T08:41:32.170Z,999.86
2017-12-01T08:42:32.102Z,999.87
2017-12-01T08:43:32.185Z,999.88
2017-12-01T08:44:32.044Z,999.87
2017-12-01T08:45:32.098Z,999.86
2017-12-01T08:46:31.996Z,999.89
2017-12-01T08:47:32.112Z,999.86
2017-12-01T08:48:31.937Z,999.89
2017-12-01T08:49:32.017Z,999.88
2017-12-01T08:50:32.026Z,999.91
2017-12-01T08:51:31.859Z,999.93
2017-12-01T08:52:31.937Z,999.90
2017-12-01T08:53:31.804Z,999.90
2017-12-01T08:54:31.848Z,999.94
2017-12-01T08:55:31.751Z,999.95
2017-12-01T08:56:31.721Z,999.99
2017-12-01T08:57:31.763Z,999.99
2017-12-01T08:58:31.662Z,1000.02
2017-12-01T08:59:31.778Z,1000.06
2017-12-01T09:00:31.613Z,1000.07
2017-12-01T09:01:31.685Z,1000.08
2017-12-01T09:02:31.560Z,1000.09
2017-12-01T09:03:31.590Z,1000.15
2017-12-01T09:04:31.503Z,1000.14
2017-12-01T09:05:31.504Z,1000.14
2017-12-01T09:06:31.450Z,1000.17
2017-12-01T09:07:31.520Z,1000.16
2017-12-01T09:08:31.398Z,1000.19
2017-12-01T09:09:31.423Z,1000.17
2017-12-01T09:10:31.350Z,1000.19
2017-12-01T09:11:31.335Z,1000.23
2017-12-01T09:12:31.289Z,1000.23
2017-12-01T09:13:31.310Z,1000.24
2017-12-01T09:14:31.236Z,1000.25
2017-12-01T09:15:31.268Z,1000.26
2017-12-01T09:16:31.178Z,1000.31
2017-12-01T09:17:31.185Z,1000.30
2017-12-01T09:18:31.131Z,1000.29
2017-12-01T09:19:31.106Z,1000.32
2017-12-01T09:20:31.078Z,1000.38
2017-12-01T09:21:31.093Z,1000.36
2017-12-01T09:22:31.018Z,1000.39
2017-12-01T09:23:31.103Z,1000.40
2017-12-01T09:24:30.961Z,1000.41
2017-12-01T09:25:30.942Z,1000.44
2017-12-01T09:26:31.016Z,1000.43
2017-12-01T09:27:30.883Z,1000.46
2017-12-01T09:28:30.927Z,1000.49
2017-12-01T09:29:30.834Z,1000.54
2017-12-01T09:30:30.842Z,1000.53
2017-12-01T09:31:30.852Z,1000.56
2017-12-01T09:32:30.762Z,1000.53
2017-12-01T09:33:30.750Z,1000.58
2017-12-01T09:34:30.695Z,1000.62
2017-12-01T09:35:30.766Z,1000.63
2017-12-01T09:36:30.667Z,1000.62
2017-12-01T09:37:30.675Z,1000.67
2017-12-01T09:38:30.590Z,1000.65
2017-12-01T09:39:30.586Z,1000.71
2017-12-01T09:40:30.539Z,1000.71
2017-12-01T09:41:30.603Z,1000.76
2017-12-01T09:42:30.481Z,1000.76
2017-12-01T09:43:30.460Z,1000.75
2017-12-01T09:44:30.514Z,1000.73
2017-12-01T09:45:30.404Z,1000.71
2017-12-01T09:46:30.423Z,1000.74
2017-12-01T09:47:30.360Z,1000.78
2017-12-01T09:48:30.329Z,1000.81
2017-12-01T09:49:30.329Z,1000.82
2017-12-01T09:50:30.347Z,1000.82
2017-12-01T09:51:30.253Z,1000.86
2017-12-01T09:52:30.250Z,1000.85
2017-12-01T09:53:30.195Z,1000.89
2017-12-01T09:54:30.376Z,1000.91
2017-12-01T09:55:30.139Z,1000.89
2017-12-01T09:56:30.278Z,1000.91
2017-12-01T09:57:30.082Z,1000.90
2017-12-01T09:58:30.059Z,1000.91
2017-12-01T09:59:30.051Z,1000.91
2017-12-01T10:00:30.201Z,1000.92
2017-12-01T10:01:29.973Z,1000.97
2017-12-01T10:02:30.113Z,1001.01
2017-12-01T10:03:29.924Z,1001.01
2017-12-01T10:04:30.023Z,1001.07
2017-12-01T10:05:29.870Z,1001.04
2017-12-01T10:06:30.038Z,1001.06
2017-12-01T10:07:29.813Z,1001.07
2017-12-01T10:08:29.944Z,1001.04
2017-12-01T10:09:29.763Z,1001.05
2017-12-01T10:10:29.854Z,1001.06
2017-12-01T10:11:29.869Z,1001.04
2017-12-01T10:12:29.685Z,1001.02
2017-12-01T10:13:29.771Z,1001.08
2017-12-01T10:14:29.634Z,1001.09
2017-12-01T10:15:29.788Z,1001.08
2017-12-01T10:16:29.583Z,1001.06
2017-12-01T10:17:29.693Z,1001.11
2017-12-01T10:18:29.532Z,1001.09
2017-12-01T10:19:29.601Z,1001.14
2017-12-01T10:20:29.473Z,1001.15
2017-12-01T10:21:29.614Z,1001.13
2017-12-01T10:22:29.627Z,1001.13
2017-12-01T10:23:29.389Z,1001.14
2017-12-01T10:24:29.532Z,1001.13
2017-12-01T10:25:29.332Z,1001.12
2017-12-01T10:26:29.439Z,1001.10
2017-12-01T10:27:29.286Z,1001.11
2017-12-01T10:28:29.450Z,1001.11
2017-12-01T10:29:29.358Z,1001.13
2017-12-01T10:30:29.204Z,1001.13
2017-12-01T10:31:29.369Z,1001.13
2017-12-01T10:32:29.142Z,1001.15
2017-12-01T10:33:29.278Z,1001.14
2017-12-01T10:34:29.098Z,1001.19
2017-12-01T10:35:29.071Z,1001.18
2017-12-01T10:36:29.193Z,1001.16
2017-12-01T10:37:29.022Z,1001.16
2017-12-01T10:38:29.106Z,1001.18
2017-12-01T10:39:28.960Z,1001.16
2017-12-01T10:40:29.118Z,1001.21
2017-12-01T10:41:28.917Z,1001.17
2017-12-01T10:42:28.885Z,1001.18
2017-12-01T10:43:28.866Z,1001.15
2017-12-01T10:44:28.937Z,1001.17
2017-12-01T10:45:28.801Z,1001.21
2017-12-01T10:46:28.950Z,1001.22
2017-12-01T10:47:28.752Z,1001.24
2017-12-01T10:48:28.719Z,1001.23
2017-12-01T10:49:28.861Z,1001.24
2017-12-01T10:50:28.673Z,1001.22
2017-12-01T10:51:28.778Z,1001.19
2017-12-01T10:52:28.614Z,1001.19
2017-12-01T10:53:28.699Z,1001.20
2017-12-01T10:54:28.565Z,1001.22
2017-12-01T10:55:28.702Z,1001.20
2017-12-01T10:56:28.512Z,1001.21
2017-12-01T10:57:28.608Z,1001.22
2017-12-01T10:58:28.463Z,1001.23
2017-12-01T10:59:28.522Z,1001.25
2017-12-01T11:00:28.406Z,1001.25
2017-12-01T11:01:28.535Z,1001.30
2017-12-01T11:02:28.354Z,1001.32
2017-12-01T11:03:28.441Z,1001.32
2017-12-01T11:04:28.295Z,1001.35
2017-12-01T11:05:28.454Z,1001.37
2017-12-01T11:06:28.364Z,1001.41
2017-12-01T11:07:28.236Z,1001.44
2017-12-01T11:08:28.311Z,1001.41
2017-12-01T11:09:28.170Z,1001.42
2017-12-01T11:10:28.278Z,1001.45
2017-12-01T11:11:28.116Z,1001.44
2017-12-01T11:12:28.185Z,1001.45
2017-12-01T11:13:28.064Z,1001.44
2017-12-01T11:14:28.197Z,1001.44
2017-12-01T11:15:28.011Z,1001.47
2017-12-01T11:16:28.112Z,1001.48
2017-12-01T11:17:27.950Z,1001.52
2017-12-01T11:18:28.024Z,1001.56
2017-12-01T11:19:27.911Z,1001.52
2017-12-01T11:20:28.032Z,1001.58
2017-12-01T11:21:27.849Z,1001.57
2017-12-01T11:22:27.956Z,1001.60
2017-12-01T11:23:27.793Z,1001.61
2017-12-01T11:24:27.933Z,1001.62
2017-12-01T11:25:27.732Z,1001.60
2017-12-01T11:26:27.810Z,1001.62
2017-12-01T11:27:27.728Z,1001.67
2017-12-01T11:28:27.890Z,1001.68
2017-12-01T11:29:27.636Z,1001.63
2017-12-01T11:30:27.687Z,1001.69
2017-12-01T11:31:27.582Z,1001.64
2017-12-01T11:32:27.553Z,1001.59
2017-12-01T11:33:27.600Z,1001.61
2017-12-01T11:34:27.492Z,1001.59
2017-12-01T11:35:27.579Z,1001.62
2017-12-01T11:36:27.458Z,1001.61
2017-12-01T11:37:27.521Z,1001.63
2017-12-01T11:38:27.527Z,1001.67
2017-12-01T11:39:27.361Z,1001.67
2017-12-01T11:40:27.448Z,1001.64
2017-12-01T11:41:27.300Z,1001.66
2017-12-01T11:42:27.350Z,1001.73
2017-12-01T11:43:27.256Z,1001.71
2017-12-01T11:44:27.222Z,1001.71
2017-12-01T11:45:27.263Z,1001.67
2017-12-01T11:46:27.177Z,1001.71
2017-12-01T11:47:27.284Z,1001.73
2017-12-01T11:48:27.118Z,1001.76
2017-12-01T11:49:27.144Z,1001.73
2017-12-01T11:50:27.071Z,1001.75
2017-12-01T11:51:27.098Z,1001.80
2017-12-01T11:52:27.018Z,1001.78
2017-12-01T11:53:27.109Z,1001.81
2017-12-01T11:54:26.999Z,1001.88
2017-12-01T11:55:26.937Z,1001.86
2017-12-01T11:56:26.906Z,1001.89
2017-12-01T11:57:27.035Z,1001.87
2017-12-01T11:58:26.856Z,1001.88
2017-12-01T11:59:26.940Z,1001.90
2017-12-01T12:00:26.800Z,1001.96
2017-12-01T12:01:26.849Z,1001.96
2017-12-01T12:02:26.749Z,1001.96
2017-12-01T12:03:26.861Z,1002.01
2017-12-01T12:04:26.693Z,1002.00
2017-12-01T12:05:26.777Z,1002.03
2017-12-01T12:06:26.644Z,1002.02
2017-12-01T12:07:26.691Z,1002.01
2017-12-01T12:08:26.586Z,1002.01
2017-12-01T12:09:26.695Z,1002.04
2017-12-01T12:10:26.527Z,1002.02
2017-12-01T12:11:26.653Z,1002.06
2017-12-01T12:12:26.473Z,1002.07
2017-12-01T12:13:26.520Z,1002.05
2017-12-01T12:14:26.424Z,1002.09
2017-12-01T12:15:26.535Z,1002.14
2017-12-01T12:16:26.367Z,1002.10
2017-12-01T12:17:26.445Z,1002.12
2017-12-01T12:18:26.314Z,1002.14
2017-12-01T12:19:26.349Z,1002.13
2017-12-01T12:20:26.265Z,1002.14
2017-12-01T12:21:26.361Z,1002.16
2017-12-01T12:22:26.227Z,1002.10
2017-12-01T12:23:26.272Z,1002.16
2017-12-01T12:24:26.175Z,1002.19
2017-12-01T12:25:26.194Z,1002.21
2017-12-01T12:26:26.104Z,1002.17
2017-12-01T12:27:26.201Z,1002.19
2017-12-01T12:28:26.094Z,1002.23
2017-12-01T12:29:26.023Z,1002.24
2017-12-01T12:30:26.110Z,1002.25
2017-12-01T12:31:25.973Z,1002.28
2017-12-01T12:32:26.015Z,1002.28
2017-12-01T12:33:25.914Z,1002.23
2017-12-01T12:34:25.892Z,1002.24
2017-12-01T12:35:25.936Z,1002.24
2017-12-01T12:36:25.834Z,1002.23